Time;durP1;ratioP1;P1;durP2;ratioP2;P2;SDS_P1;SDS_P2;PMS_P1;PMS_P2;Temp;Humidity;BMP_temperature;BMP_pressure;BME280_temperature;BME280_humidity;BME280_pressure;Samples;Min_cycle;Max_cycle;Signal;HPM_P1;HPM_P2
2023/12/07 00:01:54;;;;;;;10.60;6.93;;;;;;;6.11;62.42;101926.81;5055484;28;20045;-69
2023/12/07 00:04:22;;;;;;;10.23;6.40;;;;;;;6.09;62.44;101912.81;5061244;28;20048;-68
2023/12/07 00:06:50;;;;;;;10.40;7.13;;;;;;;6.08;62.27;101921.81;5061628;28;20585;-68
2023/12/07 00:09:19;;;;;;;14.15;7.38;;;;;;;6.07;62.35;101914.81;5061347;28;20041;-68
2023/12/07 00:11:47;;;;;;;11.93;7.53;;;;;;;6.06;62.04;101918.50;5058839;28;20136;-68
2023/12/07 00:14:15;;;;;;;10.18;7.18;;;;;;;6.06;62.40;101906.97;5060595;28;20068;-68
2023/12/07 00:16:43;;;;;;;11.50;7.88;;;;;;;6.03;62.21;101909.97;5063884;28;20048;-68
2023/12/07 00:19:11;;;;;;;11.93;7.45;;;;;;;6.03;62.34;101899.31;5065028;28;20049;-68
2023/12/07 00:21:39;;;;;;;11.60;7.07;;;;;;;5.99;62.81;101892.63;5066452;28;20124;-68
2023/12/07 00:24:07;;;;;;;12.52;8.05;;;;;;;6.01;62.42;101903.97;5065839;28;20041;-68
2023/12/07 00:26:37;;;;;;;13.15;7.82;;;;;;;5.99;62.43;101904.13;5065166;28;20159;-68
2023/12/07 00:29:05;;;;;;;13.27;7.78;;;;;;;5.98;62.38;101905.13;5065262;28;20041;-68
2023/12/07 00:31:33;;;;;;;11.23;7.68;;;;;;;5.97;62.17;101903.47;5058260;28;20045;-67
2023/12/07 00:34:01;;;;;;;12.95;8.27;;;;;;;5.95;62.21;101909.97;5057310;28;20049;-68
2023/12/07 00:36:29;;;;;;;11.05;8.25;;;;;;;5.95;62.48;101915.31;5047413;28;20190;-67
2023/12/07 00:38:57;;;;;;;11.57;7.85;;;;;;;5.90;62.29;101910.47;5063319;28;20083;-67
2023/12/07 00:41:24;;;;;;;12.43;7.47;;;;;;;5.93;62.38;101917.31;5051234;28;20099;-67
2023/12/07 00:43:54;;;;;;;12.68;8.13;;;;;;;5.83;62.51;101896.09;5063761;28;20055;-68
2023/12/07 00:46:22;;;;;;;13.63;7.93;;;;;;;5.90;62.47;101906.97;5065593;28;20494;-68
2023/12/07 00:48:49;;;;;;;13.13;7.57;;;;;;;5.90;62.15;101909.63;5064471;28;20072;-68
2023/12/07 00:51:17;;;;;;;10.55;7.82;;;;;;;5.88;62.50;101905.25;5055830;28;20064;-68
2023/12/07 00:53:45;;;;;;;14.30;8.57;;;;;;;5.88;62.20;101902.59;5063122;28;20122;-68
2023/12/07 00:56:13;;;;;;;14.80;7.68;;;;;;;5.87;62.29;101908.09;5065117;28;20049;-68
2023/12/07 00:58:41;;;;;;;19.17;8.10;;;;;;;5.86;62.37;101904.59;5064829;28;20049;-68
2023/12/07 01:01:10;;;;;;;16.13;8.48;;;;;;;5.85;62.37;101907.44;5063627;28;20072;-68
2023/12/07 01:03:40;;;;;;;12.48;8.27;;;;;;;5.83;62.36;101910.25;5058774;28;20139;-68
2023/12/07 01:06:09;;;;;;;11.77;7.68;;;;;;;5.83;62.31;101909.44;5059080;28;20045;-68
2023/12/07 01:08:37;;;;;;;13.75;8.52;;;;;;;5.83;62.10;101920.94;5056138;28;20059;-68
2023/12/07 01:11:06;;;;;;;10.60;7.88;;;;;;;5.83;62.03;101923.59;5061137;28;20118;-68
2023/12/07 01:13:35;;;;;;;13.68;7.88;;;;;;;5.79;62.19;101921.41;5060521;28;20053;-67
2023/12/07 01:16:04;;;;;;;12.30;8.10;;;;;;;5.80;62.17;101926.59;5062107;28;20049;-67
2023/12/07 01:18:33;;;;;;;13.05;8.52;;;;;;;5.78;62.52;101925.09;5064751;28;20053;-67
2023/12/07 01:21:01;;;;;;;12.98;8.40;;;;;;;5.78;62.33;101925.09;5045805;28;20045;-68
2023/12/07 01:23:28;;;;;;;14.93;8.77;;;;;;;5.78;62.30;101925.91;5053211;28;20041;-68
2023/12/07 01:25:56;;;;;;;13.85;8.07;;;;;;;5.78;62.36;101930.44;5061137;28;20058;-67
2023/12/07 01:28:24;;;;;;;11.70;7.60;;;;;;;5.76;62.28;101925.25;5052938;28;20049;-67
2023/12/07 01:30:52;;;;;;;12.10;8.30;;;;;;;5.75;62.22;101920.09;5058101;28;20077;-68
2023/12/07 01:33:20;;;;;;;9.77;7.65;;;;;;;5.75;62.07;101920.91;5061523;28;20099;-67
2023/12/07 01:35:49;;;;;;;14.48;8.32;;;;;;;5.75;62.51;101920.09;5063008;28;20049;-67
2023/12/07 01:38:17;;;;;;;12.00;8.10;;;;;;;5.74;62.14;101921.91;5061617;28;20041;-68
2023/12/07 01:40:44;;;;;;;12.75;7.90;;;;;;;5.73;62.36;101917.56;5063867;28;20107;-68
2023/12/07 01:43:13;;;;;;;14.60;8.43;;;;;;;5.73;62.41;101924.75;5065333;28;20052;-68
2023/12/07 01:45:41;;;;;;;11.07;7.72;;;;;;;5.71;62.68;101924.06;5053583;28;20045;-69
2023/12/07 01:48:09;;;;;;;12.20;8.32;;;;;;;5.72;62.61;101923.91;5064493;28;20041;-67
2023/12/07 01:50:37;;;;;;;10.93;7.70;;;;;;;5.72;62.40;101931.06;5055877;28;20041;-67
2023/12/07 01:53:07;;;;;;;11.15;8.00;;;;;;;5.73;62.70;101925.56;5046277;28;20083;-67
2023/12/07 01:55:37;;;;;;;11.75;7.68;;;;;;;5.71;62.69;101929.41;5060077;28;20079;-66
2023/12/07 01:58:05;;;;;;;14.55;7.78;;;;;;;5.72;62.93;101926.56;5064132;28;20053;-67
2023/12/07 02:00:34;;;;;;;16.48;8.57;;;;;;;5.73;62.78;101930.06;5063281;28;20079;-67
2023/12/07 02:03:05;;;;;;;11.52;8.07;;;;;;;5.73;62.91;101927.41;5064275;28;20094;-67
2023/12/07 02:05:34;;;;;;;11.80;7.68;;;;;;;5.71;62.89;101927.56;5062581;28;20200;-68
2023/12/07 02:08:02;;;;;;;11.30;7.97;;;;;;;5.72;62.82;101928.41;5057061;28;20475;-67
2023/12/07 02:10:31;;;;;;;12.20;7.30;;;;;;;5.72;63.25;101931.06;5060176;28;20041;-67
2023/12/07 02:12:59;;;;;;;11.18;8.20;;;;;;;5.71;63.06;101937.41;5064095;28;20087;-68
2023/12/07 02:15:27;;;;;;;12.25;7.72;;;;;;;5.72;63.04;101931.06;5061912;28;20067;-68
2023/12/07 02:18:03;;;;;;;11.63;8.00;;;;;;;5.73;62.84;101936.25;5064530;28;20077;-68
2023/12/07 02:20:38;;;;;;;13.98;7.90;;;;;;;5.73;63.11;101938.09;5055723;28;20075;-68
2023/12/07 02:23:08;;;;;;;11.48;7.65;;;;;;;5.73;63.29;101938.91;5057378;28;20452;-68
2023/12/07 02:25:45;;;;;;;12.07;8.23;;;;;;;5.74;62.97;101950.41;5059333;28;20102;-68
2023/12/07 02:28:14;;;;;;;17.05;8.32;;;;;;;5.72;63.04;101947.06;5046704;28;20104;-69
2023/12/07 02:30:42;;;;;;;11.32;7.78;;;;;;;5.70;63.16;101944.56;5054004;28;20104;-68
2023/12/07 02:33:11;;;;;;;13.07;8.40;;;;;;;5.71;63.01;101951.56;5063349;28;20070;-68
2023/12/07 02:35:40;;;;;;;13.20;9.23;;;;;;;5.71;63.21;101950.75;5051202;28;20147;-67
2023/12/07 02:38:09;;;;;;;13.50;8.70;;;;;;;5.68;63.18;101946.56;5064398;28;20045;-68
2023/12/07 02:40:39;;;;;;;13.13;8.77;;;;;;;5.68;63.32;101949.25;5062337;28;20049;-68
2023/12/07 02:43:08;;;;;;;13.23;9.05;;;;;;;5.67;63.23;101944.06;5061196;28;20041;-68
2023/12/07 02:45:37;;;;;;;14.55;8.75;;;;;;;5.65;63.66;101938.91;5062100;28;20116;-68
2023/12/07 02:48:05;;;;;;;12.32;9.15;;;;;;;5.65;63.54;101940.72;5063511;28;20056;-68
2023/12/07 02:50:33;;;;;;;14.05;9.40;;;;;;;5.64;63.82;101931.06;5063230;28;20041;-68
2023/12/07 02:53:01;;;;;;;12.60;8.93;;;;;;;5.64;64.01;101937.22;5063669;28;20079;-69
2023/12/07 02:55:29;;;;;;;14.90;10.02;;;;;;;5.63;63.52;101940.88;5063629;28;20071;-69
2023/12/07 02:57:57;;;;;;;13.57;9.15;;;;;;;5.62;63.47;101927.72;5063489;28;20070;-69
2023/12/07 03:00:25;;;;;;;12.60;9.57;;;;;;;5.64;63.22;101933.72;5061534;28;20057;-69
2023/12/07 03:02:54;;;;;;;13.75;9.02;;;;;;;5.62;63.42;101936.56;5063147;28;20045;-68
2023/12/07 03:05:23;;;;;;;11.68;8.50;;;;;;;5.62;63.58;101927.72;5060938;28;20470;-69
2023/12/07 03:07:50;;;;;;;13.40;9.27;;;;;;;5.61;63.51;101939.38;5061257;28;20068;-67
2023/12/07 03:10:18;;;;;;;15.18;10.07;;;;;;;5.61;63.61;101931.38;5062797;28;20079;-69
2023/12/07 03:12:46;;;;;;;14.63;10.15;;;;;;;5.61;63.57;101937.56;5063511;28;20049;-69
2023/12/07 03:15:14;;;;;;;14.00;9.57;;;;;;;5.60;63.56;101930.56;5059990;28;20060;-69
2023/12/07 03:17:43;;;;;;;14.85;10.77;;;;;;;5.59;63.68;101934.22;5063069;28;20053;-69
2023/12/07 03:20:13;;;;;;;14.25;10.15;;;;;;;5.58;63.48;101945.88;5063543;28;20049;-68
2023/12/07 03:22:41;;;;;;;16.70;9.90;;;;;;;5.58;63.63;101948.53;5056388;28;20399;-68
2023/12/07 03:25:09;;;;;;;15.75;9.80;;;;;;;5.53;63.50;101929.53;5060512;28;20087;-68
2023/12/07 03:27:37;;;;;;;17.10;11.32;;;;;;;5.56;63.55;101937.19;5063953;28;20049;-68
2023/12/07 03:30:06;;;;;;;15.18;10.00;;;;;;;5.56;63.55;101942.53;5062119;28;20049;-69
2023/12/07 03:32:33;;;;;;;16.38;10.77;;;;;;;5.55;63.21;101941.69;5063200;28;20044;-69
2023/12/07 03:35:01;;;;;;;14.30;9.80;;;;;;;5.55;63.55;101944.38;5052015;28;20053;-69
2023/12/07 03:37:30;;;;;;;15.95;10.50;;;;;;;5.53;63.38;101941.03;5057383;28;20515;-69
2023/12/07 03:39:58;;;;;;;17.45;11.52;;;;;;;5.54;63.60;101955.19;5052030;28;20046;-69
2023/12/07 03:42:26;;;;;;;14.32;9.60;;;;;;;5.53;63.42;101951.69;5047931;28;20054;-69
2023/12/07 03:45:14;;;;;;;16.45;10.80;;;;;;;5.51;63.63;101951.03;5056766;28;20049;-69
2023/12/07 03:47:42;;;;;;;15.77;11.07;;;;;;;5.50;63.48;101952.03;5061633;28;20122;-69
2023/12/07 03:50:10;;;;;;;15.70;10.38;;;;;;;5.41;63.55;101939.66;5063080;28;20075;-69
2023/12/07 03:52:39;;;;;;;15.35;10.52;;;;;;;5.51;63.47;101955.50;5066966;28;20107;-69
2023/12/07 03:55:08;;;;;;;16.42;9.95;;;;;;;5.51;63.53;101968.84;5062457;28;20048;-69
2023/12/07 03:57:36;;;;;;;16.27;10.00;;;;;;;5.50;63.40;101964.50;5067620;28;20243;-69
2023/12/07 04:00:07;;;;;;;14.52;9.95;;;;;;;5.49;63.35;101963.69;5066251;28;20052;-68
2023/12/07 04:02:35;;;;;;;13.45;9.20;;;;;;;5.49;63.73;101969.00;5055092;28;20057;-68
2023/12/07 04:05:03;;;;;;;13.38;9.52;;;;;;;5.49;63.41;101976.19;5065586;28;20048;-68
2023/12/07 04:07:31;;;;;;;13.23;9.18;;;;;;;5.49;63.59;101973.50;5061965;28;20091;-67
2023/12/07 04:10:00;;;;;;;13.25;9.57;;;;;;;5.48;63.49;101977.16;5056760;28;20075;-68
2023/12/07 04:12:28;;;;;;;15.25;9.45;;;;;;;5.47;63.31;101976.34;5065607;28;20049;-68
2023/12/07 04:14:56;;;;;;;11.60;8.65;;;;;;;5.47;63.72;101970.16;5065885;28;20150;-68
2023/12/07 04:17:24;;;;;;;13.40;9.38;;;;;;;5.48;63.50;101972.66;5066643;28;20085;-68
2023/12/07 04:19:52;;;;;;;11.07;8.02;;;;;;;5.47;63.42;101971.00;5066484;28;20409;-68
2023/12/07 04:22:20;;;;;;;12.18;8.50;;;;;;;5.49;63.54;101985.00;5057088;28;20112;-68
2023/12/07 04:24:47;;;;;;;12.43;8.52;;;;;;;5.45;63.34;101978.31;5055842;28;20045;-68
2023/12/07 04:27:17;;;;;;;11.70;7.80;;;;;;;5.46;63.36;101987.16;5051164;28;20045;-68
2023/12/07 04:29:44;;;;;;;10.32;7.55;;;;;;;5.47;63.49;101987.00;5063038;28;20081;-68
2023/12/07 04:32:12;;;;;;;10.43;7.45;;;;;;;5.45;63.31;101985.50;5048665;28;20067;-68
2023/12/07 04:34:40;;;;;;;10.00;7.13;;;;;;;5.46;63.31;101988.00;5064620;28;20057;-68
2023/12/07 04:37:08;;;;;;;11.23;7.53;;;;;;;5.46;63.20;101996.00;5064018;28;20041;-68
2023/12/07 04:39:37;;;;;;;10.80;7.25;;;;;;;5.45;63.40;101997.00;5059884;28;20112;-68
2023/12/07 04:42:05;;;;;;;10.52;7.68;;;;;;;5.45;63.45;101991.66;5066091;28;20048;-68
2023/12/07 04:44:34;;;;;;;10.00;7.55;;;;;;;5.45;63.61;101990.81;5062538;28;20052;-69
2023/12/07 04:47:02;;;;;;;10.15;6.88;;;;;;;5.44;63.28;101987.31;5064468;28;20478;-69
2023/12/07 04:49:30;;;;;;;10.10;7.35;;;;;;;5.45;63.53;101983.66;5055937;28;20100;-69
2023/12/07 04:51:58;;;;;;;10.40;7.55;;;;;;;5.45;63.32;101977.50;5066140;28;20053;-68
2023/12/07 04:54:27;;;;;;;9.38;6.82;;;;;;;5.43;63.80;101972.31;5060941;28;20077;-68
2023/12/07 04:56:55;;;;;;;9.35;6.45;;;;;;;5.41;63.54;101963.66;5046574;28;20053;-69
2023/12/07 04:59:23;;;;;;;11.10;7.72;;;;;;;5.42;63.75;101969.81;5052594;28;20387;-69
2023/12/07 05:01:52;;;;;;;11.10;7.80;;;;;;;5.42;63.77;101964.47;5060923;28;20462;-69
2023/12/07 05:04:20;;;;;;;10.00;6.75;;;;;;;5.41;63.54;101966.31;5057194;28;20577;-69
2023/12/07 05:06:48;;;;;;;10.57;7.10;;;;;;;5.40;63.88;101953.16;5059609;28;20056;-69
2023/12/07 05:09:16;;;;;;;11.75;7.82;;;;;;;5.39;63.45;101954.97;5060721;28;20068;-69
2023/12/07 05:11:45;;;;;;;10.40;7.13;;;;;;;5.40;63.58;101950.47;5062379;28;20045;-69
2023/12/07 05:14:13;;;;;;;10.68;6.93;;;;;;;5.39;63.78;101946.97;5059673;28;20163;-69
2023/12/07 05:16:41;;;;;;;11.90;7.47;;;;;;;5.37;63.98;101938.31;5058851;28;20087;-69
2023/12/07 05:19:11;;;;;;;10.98;7.32;;;;;;;5.39;63.94;101948.81;5064851;28;20061;-70
2023/12/07 05:21:39;;;;;;;10.82;6.85;;;;;;;5.37;64.04;101945.47;5058347;28;20041;-69
2023/12/07 05:24:08;;;;;;;10.63;7.25;;;;;;;5.37;63.99;101951.63;5063663;28;20057;-69
2023/12/07 05:26:36;;;;;;;10.55;7.25;;;;;;;5.37;63.83;101948.13;5064747;28;20110;-69
2023/12/07 05:29:03;;;;;;;10.13;6.90;;;;;;;5.34;63.99;101935.97;5065019;28;20056;-69
2023/12/07 05:31:31;;;;;;;10.80;7.05;;;;;;;5.35;64.01;101936.78;5052930;28;20049;-69
2023/12/07 05:33:59;;;;;;;10.77;7.20;;;;;;;5.36;64.00;101943.78;5053194;28;20069;-68
2023/12/07 05:36:29;;;;;;;11.10;7.53;;;;;;;5.36;63.73;101941.13;5064118;28;20454;-69
2023/12/07 05:38:56;;;;;;;10.90;7.47;;;;;;;5.35;63.94;101945.63;5063655;28;20053;-69
2023/12/07 05:41:25;;;;;;;10.35;7.15;;;;;;;5.34;63.95;101937.78;5061166;28;20072;-68
2023/12/07 05:43:53;;;;;;;10.52;7.15;;;;;;;5.34;63.95;101937.78;5054533;28;20052;-68
2023/12/07 05:46:21;;;;;;;11.77;7.85;;;;;;;5.33;64.22;101939.63;5062191;28;20045;-67
2023/12/07 05:48:49;;;;;;;12.35;7.78;;;;;;;5.33;64.37;101941.47;5063093;28;20136;-69
2023/12/07 05:51:20;;;;;;;13.88;8.45;;;;;;;5.28;63.82;101933.94;5057179;28;20046;-69
2023/12/07 05:53:49;;;;;;;10.00;7.20;;;;;;;5.34;64.18;101935.13;5063828;28;20103;-69
2023/12/07 05:56:20;;;;;;;12.32;8.50;;;;;;;5.33;64.16;101930.78;5064808;28;20040;-68
2023/12/07 05:58:48;;;;;;;10.52;7.05;;;;;;;5.33;64.29;101947.63;5058190;28;20288;-69
2023/12/07 06:01:18;;;;;;;11.23;7.53;;;;;;;5.34;63.99;101938.63;5062590;28;20671;-69
2023/12/07 06:03:46;;;;;;;10.95;6.75;;;;;;;5.34;63.98;101945.78;5063093;28;20044;-69
2023/12/07 06:06:14;;;;;;;9.07;6.50;;;;;;;5.33;63.95;101938.78;5065120;28;20049;-69
2023/12/07 06:08:42;;;;;;;10.52;7.20;;;;;;;5.33;64.02;101933.47;5052838;28;20088;-68
2023/12/07 06:11:11;;;;;;;11.93;7.00;;;;;;;5.34;64.12;101935.97;4697573;28;10000508;-66
2023/12/07 06:13:39;;;;;;;10.82;7.13;;;;;;;5.33;64.26;101939.63;5059669;28;20513;-64
2023/12/07 06:16:07;;;;;;;10.27;6.68;;;;;;;5.28;63.90;101925.94;5056867;28;20102;-64
2023/12/07 06:18:37;;;;;;;11.25;7.18;;;;;;;5.48;63.74;101940.69;5062197;28;20049;-70
2023/12/07 06:21:06;;;;;;;10.68;7.47;;;;;;;5.64;63.05;101934.56;5065177;28;20056;-68
2023/12/07 06:23:33;;;;;;;10.23;6.88;;;;;;;5.82;62.50;101927.25;5059019;28;20049;-73
2023/12/07 06:26:02;;;;;;;9.82;6.40;;;;;;;6.01;62.13;101922.66;5059545;28;20049;-67
2023/12/07 06:28:32;;;;;;;9.52;6.78;;;;;;;6.16;61.87;101929.00;5054365;28;20049;-67
2023/12/07 06:31:06;;;;;;;10.60;6.72;;;;;;;6.34;61.28;101931.50;5062996;28;20044;-70
2023/12/07 06:33:34;;;;;;;8.45;5.95;;;;;;;6.30;60.91;101917.66;5053953;28;20140;-66
2023/12/07 06:36:04;;;;;;;9.85;6.80;;;;;;;6.37;61.15;101937.34;5057073;28;20076;-67
2023/12/07 06:38:31;;;;;;;11.48;6.22;;;;;;;6.29;60.83;101933.84;5057344;28;20044;-69
2023/12/07 06:40:59;;;;;;;10.57;7.00;;;;;;;6.19;61.41;101924.16;5049878;28;20049;-69
2023/12/07 06:43:27;;;;;;;10.77;7.18;;;;;;;6.12;61.59;101919.66;5055760;28;20140;-66
2023/12/07 06:45:56;;;;;;;9.20;6.20;;;;;;;6.02;61.91;101913.66;5054781;28;20049;-67
2023/12/07 06:48:24;;;;;;;10.57;7.28;;;;;;;5.95;62.38;101910.81;5055413;28;20102;-67
2023/12/07 06:50:52;;;;;;;9.88;6.63;;;;;;;5.87;62.57;101908.94;5056600;28;20048;-68
2023/12/07 06:53:20;;;;;;;10.77;7.30;;;;;;;5.83;62.76;101906.75;5054068;28;20064;-65
2023/12/07 06:55:47;;;;;;;13.55;8.55;;;;;;;5.67;63.32;101907.56;5050483;28;20044;-74
2023/12/07 06:58:15;;;;;;;12.60;8.05;;;;;;;5.63;63.74;101900.06;5055149;28;20140;-68
2023/12/07 07:00:43;;;;;;;13.65;8.82;;;;;;;5.62;63.63;101903.72;5059076;28;20135;-73
2023/12/07 07:03:13;;;;;;;13.23;9.02;;;;;;;5.60;63.75;101903.03;5059994;28;20083;-72
2023/12/07 07:05:40;;;;;;;12.30;7.40;;;;;;;5.59;63.86;101907.53;5057944;28;20049;-70
2023/12/07 07:08:08;;;;;;;14.23;8.85;;;;;;;5.51;63.78;101900.38;5053990;28;20044;-69
2023/12/07 07:10:37;;;;;;;11.68;7.75;;;;;;;5.57;63.81;101912.22;5059104;28;20049;-74
2023/12/07 07:13:05;;;;;;;12.32;7.63;;;;;;;5.54;63.98;101918.69;5061122;28;20045;-67
2023/12/07 07:15:33;;;;;;;17.83;9.48;;;;;;;5.49;64.29;101917.53;5050815;28;20046;-76
2023/12/07 07:18:02;;;;;;;14.00;9.50;;;;;;;5.44;64.41;101917.16;5005579;28;1100449;-76
2023/12/07 07:20:32;;;;;;;14.07;8.55;;;;;;;5.45;64.25;101926.84;5044147;28;20045;-75
2023/12/07 07:23:00;;;;;;;12.85;8.27;;;;;;;5.47;64.26;101927.50;5048831;28;20045;-74
2023/12/07 07:25:28;;;;;;;12.40;8.65;;;;;;;5.45;64.25;101926.84;5062629;28;20059;-75
2023/12/07 07:27:56;;;;;;;14.63;8.63;;;;;;;5.46;64.33;101923.19;5063983;28;20051;-74
2023/12/07 07:30:24;;;;;;;15.63;9.25;;;;;;;5.40;64.78;101929.16;5062741;28;20048;-67
2023/12/07 07:32:51;;;;;;;15.27;8.75;;;;;;;5.35;65.05;101928.81;5055640;28;20103;-69
2023/12/07 07:35:19;;;;;;;15.82;9.40;;;;;;;5.34;64.93;101922.63;5061477;28;20061;-68
2023/12/07 07:37:49;;;;;;;15.40;9.57;;;;;;;5.35;65.03;101934.97;5065703;28;20049;-68
2023/12/07 07:40:17;;;;;;;13.90;8.68;;;;;;;5.35;64.97;101932.31;5072101;28;20049;-68
2023/12/07 07:42:45;;;;;;;13.35;8.85;;;;;;;5.35;65.23;101928.81;5067251;28;20037;-69
2023/12/07 07:45:13;;;;;;;12.45;7.80;;;;;;;5.33;64.71;101928.13;5073817;28;20440;-69
2023/12/07 07:47:41;;;;;;;12.90;8.02;;;;;;;5.36;64.91;101936.63;5068327;28;20049;-69
2023/12/07 07:50:11;;;;;;;14.85;8.40;;;;;;;5.38;64.90;101931.97;5071889;28;20060;-68
2023/12/07 07:52:40;;;;;;;13.90;8.55;;;;;;;5.39;64.78;101933.66;5067643;28;20048;-68
2023/12/07 07:55:11;;;;;;;12.63;7.78;;;;;;;5.39;64.68;101928.31;5070998;28;20045;-68
2023/12/07 07:57:39;;;;;;;12.40;7.47;;;;;;;5.39;64.53;101928.31;5063343;28;20106;-68
2023/12/07 08:00:08;;;;;;;11.18;7.90;;;;;;;5.38;64.89;101929.31;5062163;28;20045;-66
2023/12/07 08:02:36;;;;;;;14.57;9.05;;;;;;;5.38;64.62;101928.47;5062865;28;20041;-66
2023/12/07 08:05:05;;;;;;;12.23;8.07;;;;;;;5.38;64.58;101923.16;5063457;28;20087;-68
2023/12/07 08:07:33;;;;;;;11.15;7.82;;;;;;;5.38;64.72;101923.97;5070653;28;20049;-67
2023/12/07 08:10:01;;;;;;;12.27;7.22;;;;;;;5.35;64.79;101913.63;5077931;28;20569;-68
2023/12/07 08:12:30;;;;;;;11.35;7.47;;;;;;;5.36;64.81;101920.66;5064702;28;20047;-68
2023/12/07 08:14:58;;;;;;;11.35;7.45;;;;;;;5.36;64.63;101919.81;5064811;28;20048;-67
2023/12/07 08:17:26;;;;;;;12.45;7.25;;;;;;;5.38;64.72;101917.81;5069593;28;20064;-67
2023/12/07 08:19:54;;;;;;;11.73;7.45;;;;;;;5.37;64.91;101916.97;5062518;28;20052;-67
2023/12/07 08:22:22;;;;;;;10.95;7.15;;;;;;;5.37;64.63;101922.31;5073343;28;20056;-67
2023/12/07 08:24:50;;;;;;;9.82;6.07;;;;;;;5.40;64.48;101921.16;5070858;28;20041;-68
2023/12/07 08:27:33;;;;;;;10.73;6.63;;;;;;;5.40;64.64;101929.16;5072062;28;20065;-68
2023/12/07 08:30:01;;;;;;;10.82;7.03;;;;;;;5.28;64.74;101904.63;5071007;28;20503;-69
2023/12/07 08:32:29;;;;;;;11.18;6.78;;;;;;;5.37;64.59;101919.66;5066948;28;20405;-69
2023/12/07 08:34:57;;;;;;;11.55;7.10;;;;;;;5.37;64.56;101927.66;5061713;28;20103;-69
2023/12/07 08:37:25;;;;;;;12.00;7.75;;;;;;;5.35;64.47;101912.81;5074400;28;20048;-68
2023/12/07 08:39:53;;;;;;;12.07;8.18;;;;;;;5.36;64.67;101915.31;5076739;28;20041;-68
2023/12/07 08:42:21;;;;;;;11.98;7.55;;;;;;;5.39;64.39;101920.31;5074187;28;20045;-68
2023/12/07 08:44:50;;;;;;;11.98;7.90;;;;;;;5.40;64.59;101926.50;5073807;28;20053;-68
2023/12/07 08:47:18;;;;;;;12.18;8.05;;;;;;;5.41;64.57;101922.81;5075051;28;20083;-68
2023/12/07 08:49:46;;;;;;;14.35;8.80;;;;;;;5.39;64.46;101928.31;5077177;28;20052;-68
2023/12/07 08:52:14;;;;;;;12.38;7.65;;;;;;;5.41;64.60;101933.50;5075857;28;20507;-67
2023/12/07 08:55:01;;;;;;;11.40;7.43;;;;;;;5.40;64.73;101926.50;5068475;28;20072;-68
2023/12/07 08:57:29;;;;;;;12.57;7.72;;;;;;;5.40;64.33;101931.81;5069130;28;20466;-68
2023/12/07 08:59:59;;;;;;;13.20;7.97;;;;;;;5.39;64.76;101938.16;5078362;28;20040;-68
2023/12/07 09:02:27;;;;;;;12.90;8.18;;;;;;;5.43;64.70;101934.16;5072915;28;20067;-69
2023/12/07 09:05:10;;;;;;;12.63;8.02;;;;;;;5.54;64.18;101918.69;5071066;28;20056;-70
2023/12/07 09:07:37;;;;;;;16.65;8.10;;;;;;;5.76;64.05;101930.59;5078931;28;20036;-69
2023/12/07 09:10:06;;;;;;;13.70;7.50;;;;;;;5.95;63.09;101924.16;5064519;28;20068;-69
2023/12/07 09:12:35;;;;;;;13.45;8.43;;;;;;;6.13;62.61;101924.00;5070293;28;20083;-69
2023/12/07 09:15:09;;;;;;;10.88;7.13;;;;;;;6.32;62.32;101914.81;5065359;28;20532;-70
2023/12/07 09:17:39;;;;;;;12.30;7.45;;;;;;;6.46;61.92;101903.47;5071463;28;20045;-68
2023/12/07 09:20:11;;;;;;;10.95;7.07;;;;;;;6.71;60.78;101915.78;5072736;28;20100;-69
2023/12/07 09:22:41;;;;;;;11.32;7.43;;;;;;;6.85;60.10;101916.91;5065348;28;20095;-68
2023/12/07 09:25:09;;;;;;;14.73;7.50;;;;;;;6.98;59.75;101913.66;5074129;28;20124;-67
2023/12/07 09:27:38;;;;;;;10.25;6.45;;;;;;;7.15;59.01;101912.59;5073069;28;20123;-67
2023/12/07 09:30:10;;;;;;;10.43;7.03;;;;;;;7.20;59.75;101902.22;5066630;28;20052;-66
2023/12/07 09:32:40;;;;;;;10.07;6.53;;;;;;;7.29;59.31;101895.00;5072242;28;20037;-68
2023/12/07 09:35:14;;;;;;;10.70;6.93;;;;;;;7.27;59.37;101881.81;5073665;28;20040;-68
2023/12/07 09:37:43;;;;;;;9.82;7.00;;;;;;;7.14;59.33;101882.38;5076670;28;20132;-68
2023/12/07 09:40:16;;;;;;;11.80;7.50;;;;;;;6.94;59.68;101881.09;5063854;28;20048;-69
2023/12/07 09:42:44;;;;;;;12.55;7.07;;;;;;;6.77;60.52;101884.88;5065334;28;20079;-68
2023/12/07 09:45:16;;;;;;;12.07;7.40;;;;;;;6.61;61.19;101887.56;5064884;28;20052;-68
2023/12/07 09:47:47;;;;;;;11.52;6.90;;;;;;;6.46;61.78;101885.59;5069353;28;20060;-68
2023/12/07 09:50:17;;;;;;;9.98;7.20;;;;;;;6.34;62.37;101873.59;5063904;28;20044;-63
2023/12/07 09:52:45;;;;;;;11.63;7.47;;;;;;;6.27;62.30;101879.78;5075556;28;20033;-64
2023/12/07 09:55:27;;;;;;;12.07;7.50;;;;;;;6.20;62.91;101875.13;5068875;28;20080;-65
2023/12/07 09:57:57;;;;;;;11.75;7.30;;;;;;;6.15;62.69;101869.44;5071070;28;20056;-67
2023/12/07 10:00:26;;;;;;;12.43;7.50;;;;;;;6.03;63.08;101844.09;5064371;28;20049;-67
2023/12/07 10:02:54;;;;;;;12.20;7.50;;;;;;;6.07;62.98;101863.28;5064479;28;20560;-68
2023/12/07 10:05:22;;;;;;;13.25;7.43;;;;;;;6.04;63.54;101858.28;5057211;28;20156;-67
2023/12/07 10:07:51;;;;;;;12.10;7.95;;;;;;;6.02;63.41;101857.63;5063474;28;20048;-68
2023/12/07 10:10:19;;;;;;;12.38;7.57;;;;;;;5.94;63.97;101833.59;5064616;28;20498;-67
2023/12/07 10:12:49;;;;;;;10.68;7.38;;;;;;;5.97;63.86;101833.25;5064387;28;20148;-68
2023/12/07 10:15:19;;;;;;;11.68;7.15;;;;;;;5.95;63.43;101828.09;5064116;28;20071;-68
2023/12/07 10:17:50;;;;;;;13.63;7.25;;;;;;;5.94;64.10;101831.75;5064518;28;20060;-67
2023/12/07 10:20:23;;;;;;;13.10;7.28;;;;;;;5.92;63.84;101828.44;5064465;28;20053;-68
2023/12/07 10:23:02;;;;;;;10.30;7.35;;;;;;;5.89;63.98;101820.75;5062534;28;20052;-68
2023/12/07 10:25:30;;;;;;;12.18;7.50;;;;;;;5.88;64.50;101806.56;5064055;28;20049;-68
2023/12/07 10:27:58;;;;;;;11.88;7.20;;;;;;;5.88;63.99;101801.22;5059453;28;20045;-68
2023/12/07 10:30:28;;;;;;;9.15;6.70;;;;;;;5.88;64.42;101808.38;5061794;28;20056;-69
2023/12/07 10:32:57;;;;;;;10.80;7.50;;;;;;;5.88;64.31;101808.38;5064815;28;20117;-68
2023/12/07 10:35:25;;;;;;;12.32;7.80;;;;;;;5.87;64.46;101804.06;5064308;28;20102;-68
2023/12/07 10:37:53;;;;;;;12.43;7.50;;;;;;;5.88;64.84;101805.72;5064856;28;20486;-68
2023/12/07 10:40:21;;;;;;;10.15;6.80;;;;;;;5.88;64.44;101801.22;5063248;28;20094;-68
2023/12/07 10:42:49;;;;;;;10.38;7.10;;;;;;;5.90;64.74;101803.75;5064536;28;20127;-68
2023/12/07 10:45:18;;;;;;;12.35;7.15;;;;;;;5.90;64.80;101803.75;5063538;28;20053;-68
2023/12/07 10:47:46;;;;;;;10.40;6.50;;;;;;;5.90;65.07;101787.75;5064435;28;20056;-68
2023/12/07 10:50:23;;;;;;;9.40;6.65;;;;;;;5.90;64.95;101781.56;5056979;28;20060;-68
2023/12/07 10:52:54;;;;;;;10.35;6.55;;;;;;;5.87;64.84;101772.03;5064622;28;20048;-68
2023/12/07 10:55:28;;;;;;;9.18;6.60;;;;;;;5.89;64.97;101775.41;5063395;28;20056;-68
2023/12/07 10:57:56;;;;;;;10.68;6.60;;;;;;;5.87;65.26;101764.88;5064389;28;20059;-68
2023/12/07 11:00:27;;;;;;;9.48;6.22;;;;;;;5.88;65.37;101773.72;5045647;28;20053;-67
2023/12/07 11:03:11;;;;;;;13.95;6.53;;;;;;;5.88;65.50;101771.03;5057940;28;20057;-67
2023/12/07 11:05:41;;;;;;;9.38;6.43;;;;;;;5.93;65.37;101776.75;5053562;28;20045;-68
2023/12/07 11:08:12;;;;;;;9.25;6.40;;;;;;;5.88;65.40;101771.88;5061800;28;20562;-68
2023/12/07 11:10:46;;;;;;;11.98;6.38;;;;;;;5.92;65.49;101764.41;5059203;28;20476;-68
2023/12/07 11:13:21;;;;;;;12.50;7.18;;;;;;;5.95;65.63;101760.56;5063824;28;20045;-68
2023/12/07 11:15:49;;;;;;;10.02;6.57;;;;;;;5.94;65.53;101746.38;5063194;28;20076;-66
2023/12/07 11:18:17;;;;;;;8.65;6.00;;;;;;;5.95;65.18;101732.03;5063733;28;20132;-66
2023/12/07 11:20:47;;;;;;;8.98;5.30;;;;;;;5.96;65.82;101730.22;5059667;28;20049;-69
2023/12/07 11:23:17;;;;;;;11.38;6.50;;;;;;;5.98;65.36;101717.53;5052433;28;20071;-68
2023/12/07 11:25:46;;;;;;;10.43;6.55;;;;;;;5.91;65.72;101708.53;5062932;28;20053;-67
2023/12/07 11:28:16;;;;;;;8.63;6.40;;;;;;;6.00;65.74;101718.19;5063753;28;20079;-68
2023/12/07 11:30:46;;;;;;;8.68;6.32;;;;;;;6.01;65.67;101706.53;5062873;28;20057;-67
2023/12/07 11:33:16;;;;;;;9.00;6.03;;;;;;;6.03;65.68;101707.19;5062156;28;20115;-67